Airfield :
LOGIN :

Register | Disclaimer

   EN    FR    IT 

 










Legend :    VFR   Marginal VFR   IFR   Intensive IFR   Very Intensive IFR
Visi :
Ceiling :
>= 8 km
>= 3000ft
5 to 8 km
1000 to 3000 ft
1500m to 5 km
500 to 1000 ft
800 to 1500m
200 to 500 ft
< 800m
< 200 ft
Symbols :   Thunderstorms  Fog  Heavy snow  Heavy precipitations  Wind > 20 kt
SIGMETs :     Misc.  Thunderstorms  Icing  Turbulence  Mountain Waves  Volcanic Ashes







- Airport Elevation : 7 ft
- IATA code : XHE
- Download approach charts


LFTH - Hyeres

CURRENT METAR :
  • 280030Z AUTO 31007KT 9999 // NSC 25/16 Q1011

EXPIRED METARs :
  • 280000Z AUTO 31006KT 9999 // NSC 24/16 Q1011
  • 272330Z AUTO 30007KT 270V330 9999 // NSC 25/16 Q1011
  • 272300Z AUTO 30008KT 270V330 9999 // NSC 26/16 Q1011
  • 272230Z AUTO 26012KT 9999 // NSC 26/16 Q1011
  • 272200Z AUTO 26011KT 9999 // NSC 26/15 Q1011
  • 272130Z AUTO 27015KT 9999 // NSC 26/15 Q1011

TAF TAF LFTH
Valid from the 27 at 21:00 until the 28 at 21:00 UTC


272000Z 2721/2821 25010KT CAVOK
TEMPO 2811/2820 26020G30KT
No reported NOTAMs for that airfield.



MET'MAP, your aeronautical weather chart ! - Copyright ORBIFLY December 2007 - Disclaimer

ORBIFLY MET'MAP TEAM :

Programming & Development : Alexandra Zaïnal
Concept & Development : Baudouin d'Aumeries
Co-Development & Prog : Marc-Olivier Méhu
Technical & hardware support : Manuel Goepfert

Contact : metmap@orbifly.com




SOURCES & CREDITS :

   NOAA